^^
Peaceful Hills Weather Station Historical Data
 
Daily Summary for December 05, 2021 Units:  English    Metric   Both
Daily Weekly Monthly Yearly
  Current: High: Low: Average:
Temperature: 68.8 °F 68.8 °F 54.8 °F 57.9 °F
Dew Point: 66 °F 66 °F 52.5 °F 55.4 °F
Humidity: 90.8% 92% 88% 91%
Wind Speed: 5.2mph 7.8mph 0mph 1.7mph
Wind Gust: 10mph 18mph - -
WindSouth - - SSE
Pressure: 29.92 in 30.09 in 29.92 in -
Precipitation: 0.19 in      
 
 
Tabular Data for December 05, 2021
Time Temperature Dew Point Pressure Wind Wind Speed Wind Gust Humidity Rainfall Rate (Hourly)
00:04 56.3 °F 53.1 °F 30.09 in ESE 2.6 mph 12 mph 89% 0.01 in
00:09 56.3 °F 53 °F 30.09 in NNW 3.4 mph 12 mph 88.6% 0.01 in
00:14 56.4 °F 52.9 °F 30.08 in East 4 mph 16 mph 88.2% 0.01 in
00:19 56.4 °F 52.9 °F 30.08 in East 3.8 mph 12 mph 88% 0.01 in
00:24 56.4 °F 52.9 °F 30.08 in ESE 5.8 mph 12 mph 88% 0.01 in
00:29 56.5 °F 53 °F 30.08 in East 2.6 mph 12 mph 88% 0.01 in
00:34 56.5 °F 53 °F 30.07 in ENE 4.2 mph 16 mph 88% 0.00 in
00:39 56.5 °F 53 °F 30.07 in ENE 1.6 mph 7 mph 88% 0.00 in
00:44 56.4 °F 52.9 °F 30.08 in East 2.8 mph 5 mph 88% 0.00 in
00:49 56.4 °F 52.9 °F 30.08 in ESE 0.8 mph 5 mph 88% 0.00 in
00:54 56.4 °F 52.9 °F 30.08 in ESE 1.6 mph 5 mph 88% 0.00 in
00:59 56.4 °F 52.9 °F 30.07 in ESE 3.6 mph 5 mph 88% 0.00 in
01:04 56.3 °F 52.8 °F 30.07 in ESE 2.6 mph 9 mph 88% 0.00 in
01:09 56.2 °F 52.9 °F 30.07 in ESE 3.6 mph 7 mph 88.6% 0.00 in
01:14 56.2 °F 53 °F 30.06 in East 2.2 mph 7 mph 89% 0.00 in
01:19 56.2 °F 53 °F 30.06 in Calm   4 mph 89% 0.00 in
01:24 56.1 °F 52.9 °F 30.06 in ESE 3.4 mph 5 mph 89.2% 0.00 in
01:29 56 °F 53.1 °F 30.06 in East 3.8 mph 9 mph 90% 0.03 in
01:34 55.8 °F 53.2 °F 30.06 in SE 2.4 mph 5 mph 90.8% 0.16 in
01:39 55.6 °F 53 °F 30.06 in Calm   4 mph 91% 0.16 in
01:44 55.4 °F 52.9 °F 30.06 in SE 1.6 mph 5 mph 91.2% 0.16 in
01:49 55.2 °F 52.9 °F 30.05 in SE 2 mph 5 mph 91.8% 0.16 in
01:54 55.1 °F 52.8 °F 30.05 in SE 2.2 mph 5 mph 92% 0.16 in
01:59 55 °F 52.7 °F 30.05 in SE 0.4 mph 2 mph 92% 0.16 in
02:04 55 °F 52.7 °F 30.05 in Calm   2 mph 92% 0.16 in
02:09 54.9 °F 52.6 °F 30.05 in SE 0.8 mph 4 mph 92% 0.16 in
02:14 54.9 °F 52.6 °F 30.04 in SE 0.4 mph 4 mph 92% 0.16 in
02:19 54.8 °F 52.5 °F 30.04 in SE 0.8 mph 4 mph 92% 0.16 in
02:24 54.9 °F 52.6 °F 30.04 in SE 1.2 mph 4 mph 92% 0.16 in
02:29 54.9 °F 52.6 °F 30.04 in SE 0.4 mph 2 mph 92% 0.16 in
02:34 54.9 °F 52.6 °F 30.04 in SE 0.8 mph 4 mph 92% 0.11 in
02:39 54.8 °F 52.5 °F 30.03 in SE 1.6 mph 2 mph 92% 0.00 in
02:44 54.9 °F 52.6 °F 30.03 in SE 2.4 mph 4 mph 92% 0.00 in
02:49 54.9 °F 52.6 °F 30.03 in SE 1.2 mph 4 mph 92% 0.00 in
02:54 54.9 °F 52.6 °F 30.03 in SE 0.4 mph 5 mph 92% 0.00 in
02:59 54.9 °F 52.6 °F 30.02 in Calm   5 mph 92% 0.00 in
03:04 54.9 °F 52.6 °F 30.02 in SE 1.2 mph 4 mph 92% 0.00 in
03:09 54.9 °F 52.6 °F 30.03 in SE 1.2 mph 5 mph 92% 0.00 in
03:14 54.9 °F 52.6 °F 30.02 in SE 1.2 mph 4 mph 92% 0.00 in
03:19 54.9 °F 52.6 °F 30.02 in SE 0.8 mph 4 mph 92% 0.00 in
03:24 54.9 °F 52.6 °F 30.02 in SE 0.4 mph 2 mph 92% 0.00 in
03:29 54.9 °F 52.6 °F 30.02 in SE 0.4 mph 2 mph 92% 0.00 in
03:34 54.9 °F 52.6 °F 30.02 in Calm   4 mph 92% 0.00 in
03:39 54.9 °F 52.6 °F 30.01 in SE 0.8 mph 4 mph 92% 0.00 in
03:44 54.9 °F 52.6 °F 30.01 in SE 0.4 mph 4 mph 92% 0.00 in
03:49 55 °F 52.7 °F 30.01 in Calm   2 mph 92% 0.00 in
03:54 55 °F 52.7 °F 30.01 in SE 1.2 mph 2 mph 92% 0.00 in
03:59 55 °F 52.7 °F 30.01 in Calm   2 mph 92% 0.00 in
04:04 55 °F 52.7 °F 30.00 in SE 0.4 mph 4 mph 92% 0.00 in
04:09 55.1 °F 52.8 °F 30.00 in SE 1.2 mph 4 mph 92% 0.00 in
04:14 55.1 °F 52.8 °F 30.00 in SE 0.8 mph 4 mph 92% 0.00 in
04:19 55.1 °F 52.8 °F 30.00 in SE 0.4 mph 4 mph 92% 0.00 in
04:24 55.1 °F 52.8 °F 30.00 in Calm   4 mph 92% 0.00 in
04:29 55.1 °F 52.8 °F 30.00 in SE 0.4 mph 2 mph 92% 0.00 in
04:34 55.2 °F 52.9 °F 29.99 in SE 0.4 mph 4 mph 92% 0.00 in
04:39 55.2 °F 52.9 °F 29.99 in Calm   2 mph 92% 0.00 in
04:44 55.2 °F 52.9 °F 29.99 in SE 0.8 mph 4 mph 92% 0.00 in
04:49 55.3 °F 53 °F 29.99 in Calm   4 mph 92% 0.00 in
04:54 55.3 °F 53 °F 29.99 in SE 0.4 mph 2 mph 92% 0.00 in
04:59 55.4 °F 53.1 °F 29.99 in SE 0.8 mph 2 mph 92% 0.00 in
05:04 55.4 °F 53.1 °F 29.99 in NE 0.8 mph 2 mph 92% 0.00 in
05:09 55.5 °F 53.2 °F 29.99 in SE 0.4 mph 2 mph 92% 0.00 in
05:14 55.6 °F 53.3 °F 29.99 in SE 1.6 mph 4 mph 92% 0.00 in
05:19 55.6 °F 53.3 °F 29.98 in Calm   2 mph 92% 0.00 in
05:24 55.7 °F 53.4 °F 29.98 in NNW 0.8 mph 5 mph 92% 0.00 in
05:29 55.7 °F 53.4 °F 29.99 in SE 0.4 mph 2 mph 92% 0.00 in
05:34 55.8 °F 53.5 °F 29.98 in ENE 1.2 mph 4 mph 92% 0.00 in
05:39 55.8 °F 53.5 °F 29.99 in Calm   4 mph 92% 0.00 in
05:44 55.9 °F 53.6 °F 29.99 in NE 0.8 mph 2 mph 92% 0.00 in
05:49 55.9 °F 53.6 °F 29.99 in SE 0.8 mph 4 mph 92% 0.00 in
05:54 55.9 °F 53.6 °F 29.98 in NNW 0.4 mph 4 mph 92% 0.00 in
05:59 55.9 °F 53.6 °F 29.99 in Calm   2 mph 92% 0.00 in
06:04 55.9 °F 53.6 °F 29.99 in SE 0.8 mph 2 mph 92% 0.01 in
06:09 56 °F 53.7 °F 29.99 in NE 0.8 mph 2 mph 92% 0.01 in
06:14 56 °F 53.7 °F 29.99 in Calm   2 mph 92% 0.01 in
06:19 56 °F 53.7 °F 29.99 in SE 0.4 mph 2 mph 92% 0.01 in
06:24 56 °F 53.7 °F 29.99 in ENE 1.2 mph 4 mph 92% 0.01 in
06:29 56.1 °F 53.8 °F 29.99 in Calm   2 mph 92% 0.01 in
06:34 56.1 °F 53.8 °F 29.99 in SE 0.4 mph 4 mph 92% 0.01 in
06:39 56.1 °F 53.8 °F 29.99 in Calm   2 mph 92% 0.01 in
06:44 56.2 °F 53.9 °F 29.99 in East 1.6 mph 4 mph 92% 0.01 in
06:49 56.3 °F 54 °F 29.99 in NE 1.6 mph 4 mph 92% 0.01 in
06:54 56.3 °F 54 °F 29.99 in SE 0.4 mph 2 mph 92% 0.01 in
06:59 56.3 °F 54 °F 29.99 in SE 1.6 mph 2 mph 92% 0.01 in
07:04 56.4 °F 54.1 °F 29.99 in SE 0.4 mph 2 mph 92% 0.01 in
07:09 56.4 °F 54.1 °F 29.98 in NE 0.8 mph 2 mph 92% 0.00 in
07:14 56.6 °F 54.3 °F 29.98 in Calm   2 mph 92% 0.00 in
07:19 56.6 °F 54.3 °F 29.99 in SE 0.4 mph 2 mph 92% 0.00 in
07:24 56.7 °F 54.4 °F 29.99 in SE 0.4 mph 2 mph 92% 0.00 in
07:29 56.8 °F 54.5 °F 29.99 in NNW 0.8 mph 4 mph 92% 0.00 in
07:34 56.9 °F 54.6 °F 29.99 in NNW 0.4 mph 4 mph 92% 0.00 in
07:39 57.1 °F 54.8 °F 29.99 in NNW 0.4 mph 2 mph 92% 0.00 in
07:44 57.2 °F 54.9 °F 29.99 in Calm   2 mph 92% 0.00 in
07:49 57.2 °F 54.9 °F 29.99 in Calm   2 mph 92% 0.00 in
07:54 57.2 °F 54.9 °F 29.99 in Calm   2 mph 92% 0.01 in
07:59 57.2 °F 54.9 °F 29.99 in Calm   2 mph 92% 0.01 in
08:04 57.3 °F 55 °F 29.99 in Calm   2 mph 92% 0.01 in
08:09 57.5 °F 55.2 °F 29.99 in NNW 0.8 mph 4 mph 92% 0.01 in
08:14 57.5 °F 55.2 °F 29.98 in Calm   4 mph 92% 0.01 in
08:19 57.6 °F 55.3 °F 29.99 in NNW 0.4 mph 2 mph 92% 0.01 in
08:24 57.7 °F 55.4 °F 29.98 in NNW 0.4 mph 4 mph 92% 0.01 in
08:29 57.8 °F 55.5 °F 29.98 in NE 2.8 mph 5 mph 92% 0.01 in
08:34 57.8 °F 55.5 °F 29.98 in NNW 0.4 mph 4 mph 92% 0.01 in
08:39 57.9 °F 55.6 °F 29.98 in NNW 1.6 mph 4 mph 92% 0.01 in
08:44 58.2 °F 55.9 °F 29.98 in NNW 1.6 mph 4 mph 92% 0.01 in
08:49 58.3 °F 56 °F 29.98 in NNW 0.8 mph 4 mph 92% 0.01 in
08:54 58.6 °F 56.3 °F 29.98 in NNW 0.8 mph 4 mph 92% 0.01 in
08:59 58.7 °F 56.4 °F 29.98 in NNW 0.4 mph 4 mph 92% 0.00 in
09:04 59 °F 56.7 °F 29.98 in NNW 1.6 mph 4 mph 92% 0.00 in
09:09 59.1 °F 56.8 °F 29.98 in NNW 0.4 mph 2 mph 92% 0.00 in
09:14 59.2 °F 56.9 °F 29.98 in NNW 0.4 mph 2 mph 92% 0.00 in
09:19 59.3 °F 57 °F 29.98 in Calm   2 mph 92% 0.00 in
09:24 59.5 °F 57.2 °F 29.98 in NNW 2.4 mph 4 mph 92% 0.00 in
09:29 59.9 °F 57.6 °F 29.97 in NNW 1.2 mph 4 mph 92% 0.00 in
09:34 60.4 °F 58.1 °F 29.98 in NNE 2.8 mph 4 mph 92% 0.00 in
09:39 60.9 °F 58.6 °F 29.98 in East 1.6 mph 4 mph 92% 0.00 in
09:44 61.7 °F 59.4 °F 29.98 in SE 2.8 mph 5 mph 92% 0.00 in
09:49 62.3 °F 59.9 °F 29.98 in SE 2.4 mph 5 mph 92% 0.00 in
09:54 62.7 °F 60.3 °F 29.98 in South 2 mph 5 mph 92% 0.00 in
09:59 63.1 °F 60.7 °F 29.97 in South 4.6 mph 9 mph 92% 0.00 in
10:04 63.7 °F 61.3 °F 29.97 in South 3.6 mph 7 mph 92% 0.00 in
10:09 64.1 °F 61.7 °F 29.97 in SSW 3 mph 7 mph 92% 0.00 in
10:14 64.3 °F 61.9 °F 29.97 in SSW 2.8 mph 9 mph 92% 0.00 in
10:19 64.5 °F 62.1 °F 29.97 in SSW 2 mph 5 mph 92% 0.00 in
10:24 64.6 °F 62.2 °F 29.97 in SSW 3.8 mph 9 mph 92% 0.00 in
10:29 64.9 °F 62.4 °F 29.97 in West 3.8 mph 7 mph 91.8% 0.00 in
10:34 65.3 °F 62.9 °F 29.96 in SSE 4.2 mph 10 mph 92% 0.00 in
10:39 65.6 °F 63.1 °F 29.96 in South 4.8 mph 10 mph 91.6% 0.00 in
10:44 65.9 °F 63.5 °F 29.96 in SSW 6 mph 10 mph 92% 0.00 in
10:49 66.1 °F 63.4 °F 29.96 in South 5.8 mph 12 mph 91.2% 0.00 in
10:54 66.1 °F 63.4 °F 29.95 in South 5.4 mph 12 mph 91% 0.00 in
10:59 66.4 °F 63.7 °F 29.95 in SSW 5.4 mph 10 mph 91% 0.00 in
11:04 66.7 °F 64 °F 29.95 in South 5.4 mph 12 mph 91% 0.00 in
11:09 67 °F 64.3 °F 29.95 in SSW 5 mph 14 mph 91% 0.00 in
11:14 67.3 °F 64.6 °F 29.94 in SSW 6.6 mph 18 mph 91.2% 0.00 in
11:19 67.4 °F 65 °F 29.94 in SSW 5.6 mph 12 mph 92% 0.00 in
11:24 67.7 °F 65.1 °F 29.93 in South 7.8 mph 18 mph 91.4% 0.00 in
11:29 67.9 °F 65.2 °F 29.93 in SSW 6 mph 18 mph 91% 0.00 in
11:34 68.1 °F 65.4 °F 29.93 in SSW 5.2 mph 14 mph 91% 0.00 in
11:39 68.5 °F 65.8 °F 29.92 in SSW 3.8 mph 12 mph 91% 0.00 in
11:44 68.8 °F 66 °F 29.92 in South 5.2 mph 10 mph 90.8% 0.00 in
Compliments of Weather Underground - 4 mb